createdAt,value
2023-06-17T18:06:15.497Z,4.70
2023-06-17T18:08:44.468Z,5.03
2023-06-17T18:11:15.640Z,10.13
2023-06-17T18:13:44.462Z,6.63
2023-06-17T18:16:12.440Z,6.13
2023-06-17T18:18:40.466Z,6.35
2023-06-17T18:21:10.856Z,6.97
2023-06-17T18:23:40.244Z,5.00
2023-06-17T18:26:11.071Z,6.82
2023-06-17T18:28:39.321Z,6.95
2023-06-17T18:31:07.568Z,5.05
2023-06-17T18:33:35.572Z,5.65
2023-06-17T18:36:03.832Z,5.40
2023-06-17T18:38:31.862Z,5.40
2023-06-17T18:41:01.327Z,5.55
2023-06-17T18:43:29.420Z,5.63
2023-06-17T18:45:57.491Z,6.60
2023-06-17T18:48:25.530Z,6.13
2023-06-17T18:50:53.544Z,5.97
2023-06-17T18:53:21.544Z,7.55
2023-06-17T18:55:50.259Z,5.68
2023-06-17T18:58:20.262Z,6.15
2023-06-17T19:00:48.488Z,5.75
2023-06-17T19:03:17.454Z,8.30
2023-06-17T19:05:46.719Z,8.10
2023-06-17T19:08:15.536Z,5.65
2023-06-17T19:10:43.809Z,6.10
2023-06-17T19:13:12.956Z,7.97
2023-06-17T19:15:42.735Z,7.45
2023-06-17T19:18:10.981Z,6.15
2023-06-17T19:20:40.038Z,7.15
2023-06-17T19:23:08.000Z,6.15
2023-06-17T19:25:36.065Z,5.57
2023-06-17T19:28:08.635Z,7.63
2023-06-17T19:30:40.918Z,6.38
2023-06-17T19:33:10.926Z,6.73
2023-06-17T19:35:38.932Z,6.90
2023-06-17T19:38:07.581Z,5.68
2023-06-17T19:40:36.006Z,6.07
2023-06-17T19:43:05.145Z,7.88
2023-06-17T19:45:34.316Z,7.38
2023-06-17T19:48:04.281Z,7.55
2023-06-17T19:50:35.013Z,6.50
2023-06-17T19:53:03.997Z,8.13
2023-06-17T19:55:32.693Z,8.60
2023-06-17T19:58:01.075Z,6.83
2023-06-17T20:00:29.918Z,6.20
2023-06-17T20:02:58.602Z,7.70
2023-06-17T20:05:26.716Z,6.82
2023-06-17T20:07:56.142Z,7.38
2023-06-17T20:10:24.693Z,7.00
2023-06-17T20:12:58.507Z,6.70
2023-06-17T20:15:27.750Z,9.63
2023-06-17T20:17:56.135Z,6.68
2023-06-17T20:20:24.570Z,8.13
2023-06-17T20:22:53.288Z,7.82
2023-06-17T20:25:25.542Z,8.90
2023-06-17T20:27:56.366Z,6.90
2023-06-17T20:30:24.720Z,5.80
2023-06-17T20:32:53.300Z,6.47
2023-06-17T20:35:21.757Z,7.15
2023-06-17T20:37:49.744Z,8.45
2023-06-17T20:40:17.842Z,6.68
2023-06-17T20:42:48.221Z,7.07
2023-06-17T20:45:17.106Z,8.75
2023-06-17T20:47:45.329Z,7.30
2023-06-17T20:50:14.074Z,8.38
2023-06-17T20:52:42.101Z,7.93
2023-06-17T20:55:11.205Z,8.75
2023-06-17T20:57:39.786Z,6.70
2023-06-17T21:00:10.769Z,8.27
2023-06-17T21:02:40.041Z,7.35
2023-06-17T21:05:09.495Z,8.45
2023-06-17T21:07:37.650Z,6.97
2023-06-17T21:10:06.983Z,7.53
2023-06-17T21:12:35.534Z,8.93
2023-06-17T21:15:03.627Z,7.10
2023-06-17T21:17:33.744Z,7.22
2023-06-17T21:20:01.829Z,7.97
2023-06-17T21:22:30.634Z,7.93
2023-06-17T21:24:58.726Z,9.77
2023-06-17T21:27:27.093Z,8.68
2023-06-17T21:29:55.173Z,7.90
2023-06-17T21:32:24.632Z,11.63
2023-06-17T21:34:56.516Z,6.88
2023-06-17T21:37:27.261Z,7.85
2023-06-17T21:39:56.486Z,8.05
2023-06-17T21:42:24.734Z,9.88
2023-06-17T21:44:53.271Z,7.32
2023-06-17T21:47:21.400Z,7.53
2023-06-17T21:49:50.490Z,7.53
2023-06-17T21:52:20.230Z,8.18
2023-06-17T21:54:50.057Z,7.93
2023-06-17T21:57:18.338Z,9.10
2023-06-17T21:59:47.675Z,8.85
2023-06-17T22:02:16.003Z,10.23
2023-06-17T22:04:44.634Z,9.93
2023-06-17T22:07:13.880Z,8.00
2023-06-17T22:09:48.335Z,8.05
2023-06-17T22:12:17.179Z,8.15
2023-06-17T22:14:45.423Z,8.00
2023-06-17T22:17:13.967Z,8.82
2023-06-17T22:19:42.906Z,7.93
2023-06-17T22:22:11.108Z,8.90
2023-06-17T22:24:39.692Z,8.98
2023-06-17T22:27:13.262Z,8.40
2023-06-17T22:29:41.392Z,9.25
2023-06-17T22:32:09.689Z,7.93
2023-06-17T22:34:38.216Z,8.95
2023-06-17T22:37:06.947Z,9.45
2023-06-17T22:39:35.561Z,8.90
2023-06-17T22:42:04.194Z,8.13
2023-06-17T22:44:33.648Z,8.15
2023-06-17T22:47:01.712Z,13.13
2023-06-17T22:49:30.818Z,9.75
2023-06-17T22:51:58.753Z,9.80
2023-06-17T22:54:27.162Z,10.40
2023-06-17T22:56:55.784Z,10.35
2023-06-17T22:59:23.883Z,10.20
2023-06-17T23:01:53.317Z,10.93
2023-06-17T23:06:50.074Z,9.82
2023-06-17T23:09:18.873Z,8.80
2023-06-17T23:11:46.887Z,9.20
2023-06-17T23:14:14.921Z,9.50
2023-06-17T23:16:42.944Z,8.77
2023-06-17T23:19:14.912Z,8.43
2023-06-17T23:21:45.343Z,9.27
2023-06-17T23:24:15.612Z,11.68
2023-06-17T23:29:11.895Z,9.30
2023-06-17T23:31:40.634Z,9.65
2023-06-17T23:34:09.103Z,12.68
2023-06-17T23:36:40.397Z,11.55
2023-06-17T23:39:09.668Z,9.57
2023-06-17T23:41:37.896Z,9.77
2023-06-17T23:44:08.157Z,9.40
2023-06-17T23:46:39.607Z,11.10
2023-06-17T23:49:07.681Z,10.18
2023-06-17T23:51:35.706Z,10.13
2023-06-17T23:54:06.008Z,10.70
2023-06-17T23:59:01.941Z,9.73
